createdAt,value
2022-09-25T00:00:24.081Z,64.22
2022-09-25T00:03:11.386Z,71.00
2022-09-25T00:06:21.225Z,75.72
2022-09-25T00:09:09.833Z,71.85
2022-09-25T00:11:55.583Z,70.85
2022-09-25T00:14:40.872Z,69.85
2022-09-25T00:17:26.234Z,66.43
2022-09-25T00:20:11.143Z,73.05
2022-09-25T00:22:56.575Z,72.13
2022-09-25T00:25:42.024Z,65.70
2022-09-25T00:28:27.615Z,62.03
2022-09-25T00:31:19.380Z,61.17
2022-09-25T00:34:06.000Z,62.47
2022-09-25T00:36:51.068Z,57.97
2022-09-25T00:39:36.097Z,59.08
2022-09-25T00:42:23.239Z,64.10
2022-09-25T00:45:20.860Z,68.63
2022-09-25T00:48:09.347Z,72.90
2022-09-25T00:50:57.389Z,64.50
2022-09-25T00:53:42.488Z,76.45
2022-09-25T00:56:31.722Z,87.20
2022-09-25T00:59:21.283Z,88.45
2022-09-25T01:02:10.525Z,65.50
2022-09-25T01:04:59.784Z,79.53
2022-09-25T01:07:48.246Z,67.60
2022-09-25T01:10:33.370Z,62.97
2022-09-25T01:13:19.330Z,72.32
2022-09-25T01:16:14.058Z,59.65
2022-09-25T01:19:25.659Z,67.53
2022-09-25T01:22:22.880Z,54.78
2022-09-25T01:25:29.088Z,56.47
2022-09-25T01:28:17.199Z,55.90
2022-09-25T01:31:08.647Z,49.95
2022-09-25T01:34:00.618Z,49.10
2022-09-25T01:36:52.622Z,51.83
2022-09-25T01:39:45.280Z,49.35
2022-09-25T01:42:37.110Z,48.83
2022-09-25T01:45:36.933Z,45.78
2022-09-25T01:48:30.559Z,41.20
2022-09-25T01:51:21.212Z,45.95
2022-09-25T01:54:14.252Z,43.25
2022-09-25T01:57:39.187Z,43.15
2022-09-25T02:00:25.492Z,40.33
2022-09-25T02:03:24.267Z,36.15
2022-09-25T02:06:14.403Z,38.17
2022-09-25T02:09:04.627Z,38.45
2022-09-25T02:11:56.309Z,38.58
2022-09-25T02:14:51.022Z,34.03
2022-09-25T02:17:44.514Z,31.90
2022-09-25T02:20:35.007Z,34.83
2022-09-25T02:23:44.552Z,41.40
2022-09-25T02:26:33.488Z,31.30
2022-09-25T02:29:19.836Z,37.67
2022-09-25T02:32:11.595Z,35.80
2022-09-25T02:34:58.367Z,35.97
2022-09-25T02:37:43.704Z,31.60
2022-09-25T02:40:55.227Z,32.33
2022-09-25T02:44:07.182Z,32.95
2022-09-25T02:46:58.162Z,35.33
2022-09-25T02:49:49.061Z,35.72
2022-09-25T02:53:04.045Z,29.83
2022-09-25T02:56:24.636Z,34.08
2022-09-25T02:59:16.666Z,28.75
2022-09-25T03:02:02.375Z,29.98
2022-09-25T03:04:49.961Z,27.63
2022-09-25T03:07:34.925Z,29.48
2022-09-25T03:10:20.494Z,24.67
2022-09-25T03:13:23.647Z,26.17
2022-09-25T03:16:22.165Z,25.83
2022-09-25T03:19:07.940Z,27.27
2022-09-25T03:21:52.865Z,23.58
2022-09-25T03:24:37.777Z,26.42
2022-09-25T03:27:23.176Z,27.85
2022-09-25T03:30:08.701Z,29.08
2022-09-25T03:32:53.700Z,26.58
2022-09-25T03:35:39.388Z,23.52
2022-09-25T03:38:24.529Z,24.95
2022-09-25T03:41:11.331Z,25.00
2022-09-25T03:43:57.092Z,26.35
2022-09-25T03:46:42.331Z,25.35
2022-09-25T03:49:27.298Z,23.92
2022-09-25T03:52:12.270Z,29.27
2022-09-25T03:54:57.480Z,27.10
2022-09-25T03:57:42.657Z,25.02
2022-09-25T04:00:27.810Z,28.10
2022-09-25T04:03:16.848Z,24.77
2022-09-25T04:06:04.279Z,31.95
2022-09-25T04:08:50.536Z,26.98
2022-09-25T04:11:35.464Z,27.05
2022-09-25T04:14:20.425Z,26.23
2022-09-25T04:17:05.356Z,22.90
2022-09-25T04:19:50.617Z,21.27
2022-09-25T04:22:35.995Z,26.08
2022-09-25T04:25:24.408Z,24.55
2022-09-25T04:28:09.709Z,28.00
2022-09-25T04:30:54.593Z,28.05
2022-09-25T04:33:39.488Z,24.35
2022-09-25T04:36:24.957Z,28.77
2022-09-25T04:39:10.158Z,30.27
2022-09-25T04:41:54.891Z,24.27
2022-09-25T04:44:39.804Z,28.15
2022-09-25T04:47:27.895Z,25.15
2022-09-25T04:50:12.950Z,29.25
2022-09-25T04:52:58.406Z,30.17
2022-09-25T04:55:43.881Z,22.10
2022-09-25T04:58:29.058Z,27.13
2022-09-25T05:01:14.903Z,22.30
2022-09-25T05:04:01.887Z,28.15
2022-09-25T05:06:49.800Z,25.38
2022-09-25T05:09:34.721Z,29.35
2022-09-25T05:12:19.660Z,23.13
2022-09-25T05:15:05.437Z,20.65
2022-09-25T05:17:50.536Z,24.60
2022-09-25T05:20:35.956Z,26.17
2022-09-25T05:23:21.921Z,29.67
2022-09-25T05:26:07.205Z,26.45
2022-09-25T05:28:52.628Z,24.90
2022-09-25T05:31:37.531Z,24.35
2022-09-25T05:34:23.125Z,21.55
2022-09-25T05:37:08.004Z,20.73
2022-09-25T05:39:53.019Z,19.60
2022-09-25T05:42:38.131Z,26.63
2022-09-25T05:45:23.437Z,21.73
2022-09-25T05:48:09.420Z,20.85
2022-09-25T05:50:56.090Z,30.17
2022-09-25T05:53:41.486Z,22.00
2022-09-25T05:56:27.032Z,25.48
2022-09-25T05:59:12.175Z,20.13
2022-09-25T06:01:57.479Z,21.67
2022-09-25T06:04:43.097Z,24.15
2022-09-25T06:07:28.346Z,26.50
2022-09-25T06:10:13.224Z,22.17
2022-09-25T06:13:00.133Z,22.30
2022-09-25T06:15:45.046Z,19.33
2022-09-25T06:18:30.342Z,24.33
2022-09-25T06:21:15.495Z,21.92
2022-09-25T06:24:01.083Z,21.42
2022-09-25T06:26:46.022Z,21.48
2022-09-25T06:29:31.037Z,23.27
2022-09-25T06:32:16.098Z,22.67
2022-09-25T06:35:01.447Z,22.38
2022-09-25T06:37:46.315Z,19.10
2022-09-25T06:40:32.061Z,21.08
2022-09-25T06:43:17.105Z,22.20
2022-09-25T06:46:02.948Z,20.88
2022-09-25T06:48:52.418Z,23.08
2022-09-25T06:51:37.647Z,24.25
2022-09-25T06:54:22.602Z,23.75
2022-09-25T06:57:07.697Z,23.38
2022-09-25T06:59:52.599Z,24.25
2022-09-25T07:02:37.642Z,18.17
2022-09-25T07:05:22.471Z,24.13
2022-09-25T07:08:07.331Z,23.45
2022-09-25T07:10:54.439Z,18.05
2022-09-25T07:13:39.657Z,18.90
2022-09-25T07:16:27.836Z,20.08
2022-09-25T07:19:12.993Z,18.38
2022-09-25T07:21:58.202Z,22.15
2022-09-25T07:24:43.745Z,18.92
2022-09-25T07:27:30.098Z,20.73
2022-09-25T07:30:15.080Z,19.05
2022-09-25T07:33:00.363Z,19.10
2022-09-25T07:35:45.337Z,16.40
2022-09-25T07:38:30.625Z,19.83
2022-09-25T07:41:16.370Z,20.52
2022-09-25T07:44:18.019Z,21.60
2022-09-25T07:47:07.057Z,18.92
2022-09-25T07:49:52.338Z,20.35
2022-09-25T07:52:37.389Z,22.00
2022-09-25T07:55:22.763Z,21.02
2022-09-25T07:58:07.630Z,20.40
2022-09-25T08:01:00.269Z,16.85
2022-09-25T08:03:45.330Z,18.17
2022-09-25T08:06:34.316Z,22.63
2022-09-25T08:09:19.824Z,17.30
2022-09-25T08:12:04.819Z,20.15
2022-09-25T08:14:54.193Z,19.65
2022-09-25T08:17:39.633Z,20.98
2022-09-25T08:20:24.818Z,17.67
2022-09-25T08:23:09.825Z,16.88
2022-09-25T08:25:55.532Z,19.25
2022-09-25T08:28:40.765Z,21.60
2022-09-25T08:31:26.319Z,18.23
2022-09-25T08:34:38.980Z,20.52
2022-09-25T08:37:16.511Z,20.88
2022-09-25T08:40:01.743Z,25.75
2022-09-25T08:42:50.974Z,19.33
2022-09-25T08:45:43.077Z,17.23
2022-09-25T08:48:37.111Z,19.90
2022-09-25T08:51:22.525Z,18.75
2022-09-25T08:54:15.626Z,17.58
2022-09-25T08:57:11.916Z,19.98
2022-09-25T09:00:02.788Z,17.02
2022-09-25T09:02:58.696Z,17.65
2022-09-25T09:05:49.525Z,14.95
2022-09-25T09:08:40.300Z,17.20
2022-09-25T09:11:50.373Z,14.45
2022-09-25T09:14:42.562Z,14.73
2022-09-25T09:17:28.531Z,17.45
2022-09-25T09:20:17.473Z,19.25
2022-09-25T09:23:04.746Z,15.45
2022-09-25T09:26:47.526Z,16.08
2022-09-25T09:30:05.787Z,15.23
2022-09-25T09:33:01.702Z,18.15
2022-09-25T09:36:02.590Z,17.83
2022-09-25T09:38:50.945Z,15.20
2022-09-25T09:41:54.018Z,14.05
2022-09-25T09:44:45.178Z,17.38
2022-09-25T09:47:56.073Z,18.00
2022-09-25T09:50:52.812Z,14.05
2022-09-25T09:53:41.306Z,21.08
2022-09-25T09:56:31.242Z,14.32
2022-09-25T09:59:20.100Z,13.38
2022-09-25T10:02:18.428Z,13.73
2022-09-25T10:05:09.166Z,15.32
2022-09-25T10:07:54.293Z,13.75
2022-09-25T10:10:42.721Z,12.93
2022-09-25T10:13:33.624Z,8.52
2022-09-25T10:16:24.276Z,12.73
2022-09-25T10:19:25.848Z,16.90
2022-09-25T10:22:21.295Z,9.90
2022-09-25T10:25:06.845Z,11.82
2022-09-25T10:27:52.579Z,11.65
2022-09-25T10:30:46.123Z,12.90
2022-09-25T10:33:32.312Z,8.73
2022-09-25T10:36:31.688Z,15.57
2022-09-25T10:40:01.662Z,9.65
2022-09-25T10:42:46.754Z,9.95
2022-09-25T10:45:35.063Z,10.13
2022-09-25T10:48:47.612Z,13.25
2022-09-25T10:51:35.523Z,11.43
2022-09-25T10:54:21.048Z,11.80
2022-09-25T10:57:27.762Z,10.48
2022-09-25T11:00:24.380Z,13.02
2022-09-25T11:03:18.584Z,12.27
2022-09-25T11:06:28.870Z,13.00
2022-09-25T11:09:20.474Z,15.90
2022-09-25T11:12:22.400Z,13.93
2022-09-25T11:15:07.796Z,16.73
2022-09-25T11:17:57.005Z,14.95
2022-09-25T11:20:42.164Z,15.10
2022-09-25T11:24:12.737Z,11.88
2022-09-25T11:27:17.248Z,12.00
2022-09-25T11:30:08.293Z,10.90
2022-09-25T11:33:22.890Z,10.75
2022-09-25T11:36:20.502Z,9.82
2022-09-25T11:39:18.409Z,10.05
2022-09-25T11:42:26.470Z,11.15
2022-09-25T11:45:26.689Z,12.65
2022-09-25T11:48:30.803Z,8.10
2022-09-25T11:51:38.009Z,11.40
2022-09-25T11:54:38.670Z,14.45
2022-09-25T11:57:34.584Z,9.30
2022-09-25T12:00:21.392Z,10.65
2022-09-25T12:03:18.981Z,9.30
2022-09-25T12:06:22.184Z,11.52
2022-09-25T12:09:19.262Z,11.10
2022-09-25T12:12:29.457Z,14.27
2022-09-25T12:15:15.144Z,14.07
2022-09-25T12:18:19.357Z,14.23
2022-09-25T12:21:10.498Z,9.45
2022-09-25T12:24:16.026Z,11.45
2022-09-25T12:27:39.341Z,12.52
2022-09-25T12:30:47.365Z,10.35
2022-09-25T12:33:37.824Z,10.35
2022-09-25T12:36:29.234Z,10.63
2022-09-25T12:39:40.749Z,11.95
2022-09-25T12:42:42.522Z,13.00
2022-09-25T12:45:34.982Z,9.13
2022-09-25T12:48:31.432Z,11.00
2022-09-25T12:51:25.829Z,12.18
2022-09-25T12:54:37.684Z,11.07
2022-09-25T12:57:44.740Z,10.23
2022-09-25T13:00:32.842Z,12.52
2022-09-25T13:03:27.829Z,10.85
2022-09-25T13:06:39.378Z,10.07
2022-09-25T13:09:34.998Z,9.48
2022-09-25T13:12:39.477Z,7.20
2022-09-25T13:15:30.015Z,12.30
2022-09-25T13:18:21.411Z,9.68
2022-09-25T13:21:31.362Z,9.45
2022-09-25T13:24:18.143Z,10.60
2022-09-25T13:27:03.582Z,9.45
2022-09-25T13:29:56.526Z,10.98
2022-09-25T13:32:50.283Z,12.77
2022-09-25T13:35:35.778Z,12.95
2022-09-25T13:38:20.885Z,9.00
2022-09-25T13:41:13.739Z,15.57
2022-09-25T13:44:36.442Z,10.30
2022-09-25T13:47:21.684Z,6.35
2022-09-25T13:50:12.658Z,9.25
2022-09-25T13:53:00.694Z,7.85
2022-09-25T13:55:48.531Z,11.80
2022-09-25T13:59:19.598Z,7.20
2022-09-25T14:02:42.911Z,6.50
2022-09-25T14:05:31.463Z,7.22
2022-09-25T14:08:16.611Z,6.40
2022-09-25T14:11:04.975Z,8.85
2022-09-25T14:13:52.520Z,8.07
2022-09-25T14:16:46.166Z,7.00
2022-09-25T14:19:35.071Z,6.38
2022-09-25T14:22:29.261Z,10.85
2022-09-25T14:25:38.892Z,11.75
2022-09-25T14:28:27.361Z,9.95
2022-09-25T14:31:30.694Z,5.80
2022-09-25T14:34:37.381Z,5.22
2022-09-25T14:37:42.030Z,9.27
2022-09-25T14:40:36.070Z,7.50
2022-09-25T14:43:45.569Z,7.85
2022-09-25T14:46:31.627Z,6.45
2022-09-25T14:49:31.774Z,6.88
2022-09-25T14:52:22.577Z,9.63
2022-09-25T14:55:14.947Z,9.52
2022-09-25T14:58:01.335Z,11.63
2022-09-25T15:00:50.278Z,13.43
2022-09-25T15:03:40.905Z,8.23
2022-09-25T15:06:34.496Z,9.75
2022-09-25T15:09:30.531Z,7.78
2022-09-25T15:12:33.546Z,9.88
2022-09-25T15:15:18.675Z,9.02
2022-09-25T15:18:04.494Z,7.32
2022-09-25T15:20:49.882Z,5.60
2022-09-25T15:23:36.375Z,8.93
2022-09-25T15:26:22.059Z,7.05
2022-09-25T15:29:21.562Z,8.25
2022-09-25T15:32:06.860Z,3.80
2022-09-25T15:35:13.800Z,5.93
2022-09-25T15:38:13.945Z,7.00
2022-09-25T15:40:59.741Z,6.55
2022-09-25T15:43:45.048Z,7.93
2022-09-25T15:46:38.306Z,8.95
2022-09-25T15:49:32.028Z,9.57
2022-09-25T15:52:29.937Z,7.13
2022-09-25T15:55:17.358Z,7.65
2022-09-25T15:58:12.866Z,4.88
2022-09-25T16:01:01.336Z,10.35
2022-09-25T16:03:52.511Z,8.30
2022-09-25T16:06:40.644Z,7.38
2022-09-25T16:09:33.526Z,6.70
2022-09-25T16:12:26.355Z,6.22
2022-09-25T16:15:23.566Z,5.68
2022-09-25T16:18:35.398Z,6.32
2022-09-25T16:21:33.245Z,6.13
2022-09-25T16:24:28.982Z,8.73
2022-09-25T16:27:25.781Z,3.95
2022-09-25T16:30:22.531Z,10.25
2022-09-25T16:33:22.601Z,6.35
2022-09-25T16:36:16.922Z,7.63
2022-09-25T16:39:09.173Z,9.25
2022-09-25T16:41:55.750Z,6.97
2022-09-25T16:44:43.978Z,10.20
2022-09-25T16:47:29.711Z,5.97
2022-09-25T16:50:15.084Z,7.18
2022-09-25T16:53:00.410Z,4.38
2022-09-25T16:55:47.595Z,4.65
2022-09-25T16:58:34.754Z,5.47
2022-09-25T17:01:21.748Z,8.70
2022-09-25T17:04:08.933Z,5.47
2022-09-25T17:06:54.946Z,7.55
2022-09-25T17:09:39.932Z,7.63
2022-09-25T17:12:25.794Z,7.72
2022-09-25T17:15:20.442Z,14.23
2022-09-25T17:18:25.867Z,7.72
2022-09-25T17:21:14.004Z,11.20
2022-09-25T17:23:59.505Z,8.02
2022-09-25T17:26:45.308Z,6.25
2022-09-25T17:29:30.243Z,8.23
2022-09-25T17:32:15.825Z,10.20
2022-09-25T17:35:01.001Z,7.95
2022-09-25T17:37:46.326Z,8.30
2022-09-25T17:40:32.418Z,8.43
2022-09-25T17:43:18.458Z,7.90
2022-09-25T17:46:03.420Z,9.00
2022-09-25T17:48:53.849Z,6.03
2022-09-25T17:51:39.799Z,5.72
2022-09-25T17:54:24.709Z,13.73
2022-09-25T17:57:09.872Z,11.10
2022-09-25T17:59:54.974Z,10.50
2022-09-25T18:02:41.084Z,8.35
2022-09-25T18:05:27.064Z,13.35
2022-09-25T18:08:13.144Z,8.15
2022-09-25T18:10:58.855Z,7.43
2022-09-25T18:13:43.960Z,7.13
2022-09-25T18:16:31.562Z,8.50
2022-09-25T18:19:18.815Z,9.60
2022-09-25T18:22:04.588Z,10.32
2022-09-25T18:24:51.072Z,10.95
2022-09-25T18:27:39.567Z,9.95
2022-09-25T18:30:24.552Z,12.18
2022-09-25T18:33:10.101Z,5.50
2022-09-25T18:35:55.506Z,11.32
2022-09-25T18:38:41.765Z,7.93
2022-09-25T18:41:26.540Z,8.18
2022-09-25T18:44:11.589Z,6.10
2022-09-25T18:46:57.020Z,8.68
2022-09-25T18:49:42.215Z,10.13
2022-09-25T18:52:27.254Z,7.78
2022-09-25T18:55:12.242Z,8.07
2022-09-25T18:57:57.276Z,8.77
2022-09-25T19:00:42.134Z,8.32
2022-09-25T19:03:27.680Z,5.72
2022-09-25T19:06:13.050Z,12.00
2022-09-25T19:08:58.251Z,8.50
2022-09-25T19:11:43.333Z,11.90
2022-09-25T19:14:28.158Z,6.63
2022-09-25T19:17:14.869Z,11.25
2022-09-25T19:19:59.874Z,11.77
2022-09-25T19:22:44.926Z,10.98
2022-09-25T19:25:30.335Z,8.23
2022-09-25T19:28:15.869Z,11.07
2022-09-25T19:31:02.638Z,13.75
2022-09-25T19:33:48.036Z,7.68
2022-09-25T19:36:34.089Z,9.60
2022-09-25T19:39:19.503Z,9.50
2022-09-25T19:42:04.616Z,13.63
2022-09-25T19:44:49.820Z,12.63
2022-09-25T19:47:35.227Z,11.13
2022-09-25T19:50:20.530Z,11.98
2022-09-25T19:53:05.441Z,10.60
2022-09-25T19:55:51.800Z,8.77
2022-09-25T19:58:37.296Z,10.97
2022-09-25T20:01:27.971Z,14.15
2022-09-25T20:04:18.278Z,11.23
2022-09-25T20:07:03.942Z,10.43
2022-09-25T20:09:49.472Z,12.00
2022-09-25T20:12:34.390Z,13.27
2022-09-25T20:15:19.787Z,12.80
2022-09-25T20:18:05.653Z,16.60
2022-09-25T20:20:50.470Z,15.07
2022-09-25T20:23:35.850Z,13.90
2022-09-25T20:26:22.015Z,13.67
2022-09-25T20:29:11.468Z,13.73
2022-09-25T20:31:56.729Z,16.00
2022-09-25T20:34:41.725Z,14.43
2022-09-25T20:37:26.562Z,19.97
2022-09-25T20:40:11.585Z,12.70
2022-09-25T20:42:56.630Z,18.07
2022-09-25T20:45:42.155Z,18.17
2022-09-25T20:48:27.522Z,33.87
2022-09-25T20:51:15.510Z,36.63
2022-09-25T20:54:10.296Z,20.67
2022-09-25T20:56:55.629Z,35.97
2022-09-25T20:59:40.479Z,28.03
2022-09-25T21:02:25.556Z,23.37
2022-09-25T21:05:11.126Z,21.73
2022-09-25T21:07:56.389Z,18.63
2022-09-25T21:10:41.218Z,12.77
2022-09-25T21:13:27.589Z,14.93
2022-09-25T21:16:14.557Z,15.07
2022-09-25T21:19:02.694Z,15.10
2022-09-25T21:21:48.372Z,12.93
2022-09-25T21:24:33.281Z,14.73
2022-09-25T21:27:18.763Z,17.50
2022-09-25T21:30:04.523Z,13.23
2022-09-25T21:32:49.479Z,13.30
2022-09-25T21:35:34.537Z,13.13
2022-09-25T21:38:20.093Z,13.00
2022-09-25T21:41:08.155Z,13.63
2022-09-25T21:43:59.773Z,12.83
2022-09-25T21:46:45.053Z,11.50
2022-09-25T21:49:30.192Z,12.30
2022-09-25T21:52:15.384Z,14.23
2022-09-25T21:55:00.758Z,15.37
2022-09-25T21:57:45.605Z,13.47
2022-09-25T22:00:30.832Z,14.23
2022-09-25T22:03:15.699Z,13.50
2022-09-25T22:06:03.005Z,12.07
2022-09-25T22:08:52.402Z,10.23
2022-09-25T22:11:38.647Z,15.50
2022-09-25T22:14:23.826Z,12.47
2022-09-25T22:17:09.176Z,12.47
2022-09-25T22:19:54.372Z,15.57
2022-09-25T22:22:39.794Z,15.80
2022-09-25T22:25:24.616Z,14.40
2022-09-25T22:28:09.568Z,11.10
2022-09-25T22:30:55.221Z,13.07
2022-09-25T22:33:41.016Z,11.53
2022-09-25T22:36:26.930Z,12.87
2022-09-25T22:39:14.741Z,12.00
2022-09-25T22:42:00.508Z,13.30
2022-09-25T22:44:45.448Z,14.03
2022-09-25T22:47:31.353Z,15.33
2022-09-25T22:50:16.676Z,13.47
2022-09-25T22:53:01.684Z,11.67
2022-09-25T22:55:46.475Z,15.10
2022-09-25T22:58:31.462Z,13.43
2022-09-25T23:01:20.443Z,14.27
2022-09-25T23:04:10.687Z,12.87
2022-09-25T23:06:55.858Z,14.07
2022-09-25T23:09:41.145Z,12.40
2022-09-25T23:12:30.471Z,13.17
2022-09-25T23:15:16.170Z,16.77
2022-09-25T23:18:01.072Z,12.13
2022-09-25T23:20:54.533Z,13.27
2022-09-25T23:23:39.686Z,12.67
2022-09-25T23:26:25.898Z,13.90
2022-09-25T23:29:18.704Z,12.83
2022-09-25T23:32:03.803Z,12.37
2022-09-25T23:34:48.971Z,11.43
2022-09-25T23:37:34.377Z,14.00
2022-09-25T23:40:19.290Z,14.07
2022-09-25T23:43:04.822Z,14.50
2022-09-25T23:45:50.092Z,14.80
2022-09-25T23:48:35.261Z,15.60
2022-09-25T23:51:20.955Z,15.83
2022-09-25T23:54:06.512Z,13.57
2022-09-25T23:56:51.796Z,13.17
2022-09-25T23:59:37.117Z,13.37
